KAVX

Catalina Airport

Avalon, California, USA
METAR KAVX 192151Z AUTO 25006KT 10SM CLR 22/14 A2980 RMK AO2 SLP071 T02170139
Observed Flight Rules
Sep-19 @ 21:51 UTC (42 minutes ago) Visual Flight Rules
Wind Visibility Clouds
250° at 6 knots 10 miles
  • Clear skies
Temperatures Readings
Current 22°C / 72°F
Dewpoint 14°C / 57°F
Humidity 61%
Altimeter 29.8" Hg
Pressure 1007.1 hPa
Elevation 482
METAR KAVX 192151Z AUTO 25006KT 10SM CLR 22/14 A2980 RMK AO2 SLP071 T02170139
Observed Flight Rules
Sep-19 @ 21:51 UTC
(42 minutes ago)
VFR
Wind Visibility
250° at 6 knots 10 miles
Clouds
  • Clear skies
Temperature Dewpoint
22°C / 72°F 14°C / 57°F
Humidity Altimeter Pressure
61% 29.8" Hg 1007.1 hPa